createdAt,value
2018-12-21T00:00:40.862Z,98360.31
2018-12-21T00:03:17.736Z,98355.83
2018-12-21T00:05:56.078Z,98359.42
2018-12-21T00:08:30.976Z,98358.80
2018-12-21T00:11:07.375Z,98357.05
2018-12-21T00:13:42.708Z,98350.23
2018-12-21T00:16:23.695Z,98346.57
2018-12-21T00:19:00.974Z,98351.94
2018-12-21T00:21:36.491Z,98345.27
2018-12-21T00:24:11.745Z,98339.02
2018-12-21T00:26:49.652Z,98349.39
2018-12-21T00:29:27.435Z,98343.57
2018-12-21T00:32:07.807Z,98341.94
2018-12-21T00:34:47.570Z,98339.86
2018-12-21T00:37:29.242Z,98342.41
2018-12-21T00:40:10.642Z,98343.32
2018-12-21T00:42:51.541Z,98332.22
2018-12-21T00:45:28.500Z,98328.75
2018-12-21T00:48:06.258Z,98322.42
2018-12-21T00:50:40.811Z,98326.22
2018-12-21T00:53:16.687Z,98330.42
2018-12-21T00:55:52.726Z,98330.47
2018-12-21T00:58:27.161Z,98330.02
2018-12-21T01:01:06.469Z,98319.42
2018-12-21T01:03:39.676Z,98315.70
2018-12-21T01:06:15.900Z,98312.09
2018-12-21T01:08:50.243Z,98309.00
2018-12-21T01:11:26.503Z,98310.30
2018-12-21T01:13:59.399Z,98305.92
2018-12-21T01:16:34.935Z,98307.75
2018-12-21T01:19:12.655Z,98303.91
2018-12-21T01:21:48.089Z,98301.67
2018-12-21T01:24:22.339Z,98297.94
2018-12-21T01:26:57.908Z,98288.80
2018-12-21T01:29:34.743Z,98293.50
2018-12-21T01:32:09.755Z,98290.62
2018-12-21T01:34:45.294Z,98294.84
2018-12-21T01:37:20.363Z,98301.92
2018-12-21T01:39:57.943Z,98310.63
2018-12-21T01:42:33.187Z,98314.75
2018-12-21T01:45:09.348Z,98317.23
2018-12-21T01:47:44.747Z,98318.41
2018-12-21T01:50:21.666Z,98316.77
2018-12-21T01:52:58.359Z,98316.67
2018-12-21T01:55:34.680Z,98316.92
2018-12-21T01:58:14.171Z,98317.21
2018-12-21T02:00:50.784Z,98311.95
2018-12-21T02:03:28.828Z,98309.97
2018-12-21T02:06:03.848Z,98314.91
2018-12-21T02:08:39.096Z,98313.55
2018-12-21T02:11:13.509Z,98311.45
2018-12-21T02:13:49.520Z,98295.23
2018-12-21T02:16:28.826Z,98286.08
2018-12-21T02:19:03.099Z,98295.36
2018-12-21T02:21:41.020Z,98294.50
2018-12-21T02:24:17.642Z,98285.42
2018-12-21T02:26:55.576Z,98290.73
2018-12-21T02:29:30.773Z,98283.68
2018-12-21T02:32:04.046Z,98282.10
2018-12-21T02:34:39.895Z,98269.20
2018-12-21T02:37:15.082Z,98274.52
2018-12-21T02:39:52.196Z,98267.47
2018-12-21T02:42:25.282Z,98272.85
2018-12-21T02:45:10.123Z,98269.97
2018-12-21T02:47:45.727Z,98271.06
2018-12-21T02:50:25.475Z,98262.75
2018-12-21T02:53:05.722Z,98262.02
2018-12-21T02:58:44.753Z,98257.73
2018-12-21T03:01:19.652Z,98251.32
2018-12-21T03:03:54.511Z,98247.06
2018-12-21T03:09:20.602Z,98224.06
2018-12-21T03:11:53.860Z,98225.20
2018-12-21T03:14:30.285Z,98219.77
2018-12-21T03:17:02.930Z,98211.17
2018-12-21T03:19:37.593Z,98199.50
2018-12-21T03:22:15.201Z,98197.88
2018-12-21T03:24:50.693Z,98195.73
2018-12-21T03:27:29.301Z,98189.25
2018-12-21T03:30:04.753Z,98178.95
2018-12-21T03:32:45.176Z,98178.14
2018-12-21T03:35:20.628Z,98172.95
2018-12-21T03:37:57.325Z,98161.20
2018-12-21T03:40:36.298Z,98152.00
2018-12-21T03:43:09.022Z,98141.05
2018-12-21T03:45:46.133Z,98137.81
2018-12-21T03:48:23.299Z,98126.78
2018-12-21T03:54:34.731Z,98107.92
2018-12-21T03:57:12.224Z,98105.77
2018-12-21T03:59:46.683Z,98090.34
2018-12-21T04:02:23.848Z,98095.80
2018-12-21T04:04:58.715Z,98091.23
2018-12-21T04:07:34.133Z,98087.11
2018-12-21T04:10:08.868Z,98086.70
2018-12-21T04:12:45.596Z,98071.22
2018-12-21T04:15:22.641Z,98071.77
2018-12-21T04:17:58.173Z,98064.52
2018-12-21T04:20:32.538Z,98051.25
2018-12-21T04:26:04.742Z,98060.73
2018-12-21T04:28:39.504Z,98072.59
2018-12-21T04:31:14.834Z,98068.89
2018-12-21T04:33:49.730Z,98067.91
2018-12-21T04:36:24.939Z,98064.36
2018-12-21T04:38:56.746Z,98077.47
2018-12-21T04:41:28.592Z,98080.92
2018-12-21T04:44:03.659Z,98082.22
2018-12-21T04:46:36.241Z,98072.27
2018-12-21T04:49:10.761Z,98069.99
2018-12-21T04:51:47.986Z,98059.59
2018-12-21T04:54:26.463Z,98058.18
2018-12-21T04:57:03.936Z,98065.35
2018-12-21T04:59:39.307Z,98059.66
2018-12-21T05:02:16.148Z,98058.73
2018-12-21T05:04:51.291Z,98061.73
2018-12-21T05:07:27.718Z,98066.08
2018-12-21T05:10:06.361Z,98052.49
2018-12-21T05:12:42.025Z,98047.64
2018-12-21T05:15:17.033Z,98042.95
2018-12-21T05:17:52.229Z,98040.88
2018-12-21T05:20:29.139Z,98039.98
2018-12-21T05:23:04.365Z,98042.37
2018-12-21T05:25:39.355Z,98053.34
2018-12-21T05:28:16.764Z,98041.30
2018-12-21T05:30:53.277Z,98031.73
2018-12-21T05:33:28.508Z,98026.44
2018-12-21T05:36:04.263Z,98019.28
2018-12-21T05:38:37.388Z,98012.39
2018-12-21T05:41:13.181Z,98022.78
2018-12-21T05:43:49.447Z,98019.63
2018-12-21T05:46:24.746Z,98019.63
2018-12-21T05:48:59.659Z,98012.53
2018-12-21T05:51:37.243Z,98007.97
2018-12-21T05:54:11.354Z,98002.77
2018-12-21T05:56:47.620Z,97997.36
2018-12-21T05:59:22.014Z,98005.61
2018-12-21T06:01:58.168Z,98000.56
2018-12-21T06:04:34.357Z,97999.36
2018-12-21T06:07:08.573Z,97996.91
2018-12-21T06:14:47.694Z,97984.13
2018-12-21T06:17:22.872Z,97983.03
2018-12-21T06:19:58.836Z,97978.97
2018-12-21T06:22:34.130Z,97968.27
2018-12-21T06:25:06.055Z,97972.74
2018-12-21T06:27:43.440Z,97969.39
2018-12-21T06:30:17.165Z,97969.23
2018-12-21T06:32:55.515Z,97961.90
2018-12-21T06:38:25.610Z,97949.36
2018-12-21T06:41:00.602Z,97943.80
2018-12-21T06:43:42.530Z,97931.28
2018-12-21T06:46:17.044Z,97921.44
2018-12-21T06:48:53.976Z,97914.03
2018-12-21T06:51:30.547Z,97913.95
2018-12-21T06:59:27.043Z,97898.14
2018-12-21T07:02:03.897Z,97905.42
2018-12-21T07:04:41.047Z,97896.67
2018-12-21T07:07:18.206Z,97892.47
2018-12-21T07:09:58.750Z,97877.56
2018-12-21T07:23:00.591Z,97855.04
2018-12-21T07:25:36.246Z,97850.67
2018-12-21T07:28:11.436Z,97845.63
2018-12-21T07:30:48.179Z,97843.81
2018-12-21T07:33:23.445Z,97831.80
2018-12-21T07:35:57.911Z,97832.56
2018-12-21T07:38:36.242Z,97829.05
2018-12-21T07:41:15.599Z,97826.44
2018-12-21T07:43:52.838Z,97831.72
2018-12-21T07:46:31.043Z,97822.31
2018-12-21T07:49:10.037Z,97831.18
2018-12-21T07:51:48.918Z,97825.06
2018-12-21T07:54:30.686Z,97836.46
2018-12-21T07:57:07.150Z,97829.05
2018-12-21T07:59:46.422Z,97818.81
2018-12-21T08:02:23.916Z,97757.61
2018-12-21T08:22:30.301Z,97817.84
2018-12-21T08:25:08.002Z,97817.22
2018-12-21T08:27:46.224Z,97813.73
2018-12-21T08:30:23.199Z,97813.34
2018-12-21T08:32:58.109Z,97809.59
2018-12-21T08:35:35.083Z,97808.14
2018-12-21T08:38:12.588Z,97794.92
2018-12-21T08:40:48.496Z,97783.70
2018-12-21T08:46:27.810Z,97789.85
2018-12-21T08:49:09.190Z,97776.00
2018-12-21T08:51:45.043Z,97775.45
2018-12-21T08:54:20.723Z,97765.34
2018-12-21T09:00:00.086Z,97757.02
2018-12-21T09:02:35.141Z,97747.75
2018-12-21T09:05:13.700Z,97745.25
2018-12-21T09:07:53.939Z,97741.42
2018-12-21T09:13:40.134Z,97741.94
2018-12-21T09:16:28.222Z,97742.06
2018-12-21T09:19:12.091Z,97745.34
2018-12-21T09:24:58.077Z,97738.13
2018-12-21T09:27:36.831Z,97740.53
2018-12-21T09:30:16.728Z,97724.20
2018-12-21T09:32:59.487Z,97721.99
2018-12-21T09:38:39.929Z,97719.24
2018-12-21T09:41:28.088Z,97704.77
2018-12-21T09:44:07.095Z,97702.22
2018-12-21T09:46:44.026Z,97679.41
2018-12-21T09:49:19.816Z,97673.47
2018-12-21T09:52:00.471Z,97661.97
2018-12-21T09:54:38.002Z,97650.54
2018-12-21T09:57:14.032Z,97644.63
2018-12-21T10:05:34.316Z,97623.91
2018-12-21T10:08:20.920Z,97615.28
2018-12-21T10:14:06.861Z,97609.97
2018-12-21T10:19:42.807Z,97604.22
2018-12-21T10:25:10.192Z,97573.69
2018-12-21T10:30:37.448Z,97559.89
2018-12-21T10:33:14.222Z,97566.48
2018-12-21T10:35:52.378Z,97549.81
2018-12-21T10:38:29.162Z,97544.87
2018-12-21T10:41:11.739Z,97538.98
2018-12-21T10:43:47.103Z,97538.94
2018-12-21T10:46:19.434Z,97534.56
2018-12-21T10:48:57.850Z,97523.75
2018-12-21T10:54:35.359Z,97524.95
2018-12-21T10:57:13.060Z,97509.19
2018-12-21T10:59:55.139Z,97504.68
2018-12-21T11:02:30.708Z,97514.08
2018-12-21T11:05:08.980Z,97483.03
2018-12-21T11:07:43.750Z,97481.16
2018-12-21T11:10:20.553Z,97473.89
2018-12-21T11:13:00.192Z,97479.16
2018-12-21T11:15:38.652Z,97479.37
2018-12-21T11:18:19.407Z,97480.59
2018-12-21T11:21:00.388Z,97464.41
2018-12-21T11:23:45.328Z,97459.88
2018-12-21T11:26:20.151Z,97461.91
2018-12-21T11:28:57.483Z,97477.53
2018-12-21T11:31:39.777Z,97472.31
2018-12-21T11:34:21.257Z,97468.81
2018-12-21T11:36:54.531Z,97468.17
2018-12-21T11:39:28.969Z,97469.94
2018-12-21T11:42:05.571Z,97455.03
2018-12-21T11:44:42.869Z,97450.95
2018-12-21T11:47:20.054Z,97467.70
2018-12-21T11:56:01.953Z,97467.77
2018-12-21T11:58:45.989Z,97460.10
2018-12-21T12:04:09.255Z,97450.84
2018-12-21T12:21:15.879Z,97452.42
2018-12-21T12:32:26.468Z,97448.84
2018-12-21T12:35:13.844Z,97448.03
2018-12-21T12:38:03.500Z,97441.08
2018-12-21T12:40:43.529Z,97433.16
2018-12-21T12:43:20.172Z,97435.60
2018-12-21T12:46:04.773Z,97439.56
2018-12-21T12:48:40.951Z,97439.59
2018-12-21T12:51:26.222Z,97445.02
2018-12-21T12:54:03.389Z,97435.28
2018-12-21T12:56:53.761Z,97438.86
2018-12-21T12:59:35.123Z,97441.84
2018-12-21T13:05:04.479Z,97439.70
2018-12-21T13:07:44.727Z,97433.20
2018-12-21T13:13:02.287Z,97436.37
2018-12-21T13:15:42.473Z,97440.53
2018-12-21T13:18:22.251Z,97444.23
2018-12-21T13:24:07.952Z,97440.97
2018-12-21T13:26:51.036Z,97458.97
2018-12-21T13:29:27.343Z,97463.11
2018-12-21T13:32:02.841Z,97455.75
2018-12-21T13:34:38.534Z,97459.37
2018-12-21T13:37:20.366Z,97451.55
2018-12-21T13:40:00.006Z,97455.91
2018-12-21T13:45:30.760Z,97474.69
2018-12-21T13:51:12.193Z,97493.20
2018-12-21T13:53:57.219Z,97481.91
2018-12-21T13:59:38.255Z,97490.84
2018-12-21T14:05:25.373Z,97487.29
2018-12-21T14:08:01.836Z,97500.61
2018-12-21T14:13:29.964Z,97509.08
2018-12-21T14:19:01.937Z,97510.73
2018-12-21T14:21:37.704Z,97512.84
2018-12-21T14:27:09.673Z,97510.30
2018-12-21T14:32:26.140Z,97509.91
2018-12-21T14:35:02.984Z,97521.34
2018-12-21T14:37:38.731Z,97518.88
2018-12-21T14:40:14.053Z,97520.19
2018-12-21T14:42:52.037Z,97522.72
2018-12-21T14:48:44.052Z,97526.86
2018-12-21T14:51:21.850Z,97534.92
2018-12-21T14:53:58.721Z,97542.70
2018-12-21T14:59:42.674Z,97551.39
2018-12-21T15:02:18.168Z,97559.02
2018-12-21T15:05:05.266Z,97557.34
2018-12-21T15:07:53.716Z,97561.27
2018-12-21T15:10:37.796Z,97570.77
2018-12-21T15:13:22.117Z,97574.98
2018-12-21T15:16:03.825Z,97578.06
2018-12-21T15:18:43.615Z,97577.02
2018-12-21T15:21:28.163Z,97573.31
2018-12-21T15:24:04.910Z,97568.25
2018-12-21T15:32:37.634Z,97584.76
2018-12-21T15:39:14.323Z,97588.69
2018-12-21T15:41:56.420Z,97577.53
2018-12-21T15:44:36.596Z,97597.11
2018-12-21T15:47:20.627Z,97598.45
2018-12-21T15:50:01.124Z,97593.54
2018-12-21T16:04:18.216Z,97598.65
2018-12-21T16:06:59.949Z,97597.22
2018-12-21T16:09:48.383Z,97608.44
2018-12-21T16:12:38.054Z,97608.27
2018-12-21T16:15:13.211Z,97611.02
2018-12-21T16:17:48.033Z,97611.05
2018-12-21T16:20:26.833Z,97620.80
2018-12-21T16:23:02.885Z,97626.42
2018-12-21T16:25:42.730Z,97620.44
2018-12-21T16:28:18.518Z,97616.71
2018-12-21T16:34:16.720Z,97623.45
2018-12-21T16:36:51.332Z,97630.91
2018-12-21T16:39:29.546Z,97634.86
2018-12-21T16:45:03.559Z,97639.31
2018-12-21T16:47:37.580Z,97642.17
2018-12-21T16:58:22.654Z,97644.42
2018-12-21T17:00:54.748Z,97654.69
2018-12-21T17:03:28.939Z,97650.80
2018-12-21T17:06:07.758Z,97660.92
2018-12-21T17:08:44.862Z,97660.21
2018-12-21T17:11:20.740Z,97663.04
2018-12-21T17:13:55.821Z,97661.03
2018-12-21T17:16:31.488Z,97663.84
2018-12-21T17:19:11.561Z,97666.80
2018-12-21T17:21:53.325Z,97655.89
2018-12-21T17:24:32.280Z,97653.27
2018-12-21T17:29:48.104Z,97656.16
2018-12-21T17:32:26.389Z,97653.45
2018-12-21T17:35:02.628Z,97671.27
2018-12-21T17:37:41.109Z,97671.56
2018-12-21T17:48:36.759Z,97693.25
2018-12-21T17:51:18.136Z,97698.77
2018-12-21T17:53:58.098Z,97720.43
2018-12-21T17:56:36.309Z,97717.59
2018-12-21T17:59:14.432Z,97718.42
2018-12-21T18:01:58.155Z,97726.12
2018-12-21T18:10:16.911Z,97730.08
2018-12-21T18:12:54.018Z,97738.76
2018-12-21T18:15:30.218Z,97742.69
2018-12-21T18:18:13.447Z,97740.25
2018-12-21T18:20:54.987Z,97747.27
2018-12-21T18:23:33.123Z,97746.65
2018-12-21T18:26:09.431Z,97750.42
2018-12-21T18:28:51.706Z,97750.63
2018-12-21T18:31:38.380Z,97756.75
2018-12-21T18:34:20.303Z,97751.95
2018-12-21T18:36:58.178Z,97751.32
2018-12-21T18:39:37.391Z,97761.88
2018-12-21T18:42:14.478Z,97764.49
2018-12-21T18:47:43.236Z,97755.67
2018-12-21T18:50:19.070Z,97758.08
2018-12-21T18:52:54.930Z,97739.75
2018-12-21T18:55:30.863Z,97728.28
2018-12-21T18:58:08.274Z,97725.88
2018-12-21T19:00:48.131Z,97726.94
2018-12-21T19:03:27.864Z,97724.69
2018-12-21T19:06:03.671Z,97733.22
2018-12-21T19:08:47.136Z,97738.29
2018-12-21T19:14:29.196Z,97736.89
2018-12-21T19:17:07.471Z,97731.88
2018-12-21T19:22:35.289Z,97715.44
2018-12-21T19:25:14.297Z,97728.22
2018-12-21T19:27:55.077Z,97723.84
2018-12-21T19:30:38.772Z,97723.36
2018-12-21T19:33:11.340Z,97731.34
2018-12-21T19:35:46.968Z,97727.64
2018-12-21T19:38:20.613Z,97730.56
2018-12-21T19:40:59.017Z,97737.27
2018-12-21T19:43:40.894Z,97732.55
2018-12-21T19:52:08.907Z,97731.98
2018-12-21T19:57:22.731Z,97739.00
2018-12-21T20:00:09.618Z,97742.08
2018-12-21T20:02:45.650Z,97735.84
2018-12-21T20:05:30.535Z,97734.58
2018-12-21T20:15:01.861Z,97737.23
2018-12-21T20:17:38.315Z,97728.28
2018-12-21T20:20:22.991Z,97734.57
2018-12-21T20:25:44.029Z,97731.32
2018-12-21T20:28:22.460Z,97720.86
2018-12-21T20:30:59.622Z,97716.52
2018-12-21T20:33:35.539Z,97713.87
2018-12-21T20:36:12.400Z,97709.45
2018-12-21T20:38:52.024Z,97715.91
2018-12-21T20:41:34.160Z,97713.34
2018-12-21T20:44:13.570Z,97717.50
2018-12-21T20:46:59.900Z,97715.00
2018-12-21T20:49:36.128Z,97714.22
2018-12-21T20:52:13.873Z,97728.13
2018-12-21T20:54:56.801Z,97725.34
2018-12-21T20:57:41.402Z,97738.53
2018-12-21T21:00:16.981Z,97735.98
2018-12-21T21:02:55.231Z,97751.49
2018-12-21T21:05:28.177Z,97757.06
2018-12-21T21:08:08.940Z,97753.05
2018-12-21T21:10:45.656Z,97747.70
2018-12-21T21:13:27.624Z,97730.59
2018-12-21T21:16:07.864Z,97735.55
2018-12-21T21:18:49.252Z,97739.91
2018-12-21T21:21:28.116Z,97723.86
2018-12-21T21:24:12.680Z,97742.37
2018-12-21T21:30:13.887Z,97737.25
2018-12-21T21:33:00.643Z,97739.64
2018-12-21T21:38:43.736Z,97751.87
2018-12-21T21:41:35.670Z,97755.63
2018-12-21T21:44:09.614Z,97757.34
2018-12-21T21:46:52.598Z,97757.59
2018-12-21T21:49:38.897Z,97767.19
2018-12-21T21:52:19.854Z,97764.84
2018-12-21T21:55:05.257Z,97758.38
2018-12-21T21:57:55.117Z,97766.66
2018-12-21T22:00:48.797Z,97774.55
2018-12-21T22:09:18.660Z,97765.59
2018-12-21T22:12:02.613Z,97776.28
2018-12-21T22:14:43.965Z,97786.50
2018-12-21T22:17:25.423Z,97735.28
2018-12-21T22:20:06.043Z,97791.48
2018-12-21T22:31:13.390Z,97802.92
2018-12-21T22:43:08.163Z,97784.47
2018-12-21T22:45:44.346Z,97796.78
2018-12-21T22:48:21.569Z,97798.23
2018-12-21T22:50:56.496Z,97799.47
2018-12-21T22:53:35.020Z,97806.85
2018-12-21T22:56:11.907Z,97798.84
2018-12-21T23:01:29.684Z,97803.39
2018-12-21T23:04:04.602Z,97809.55
2018-12-21T23:06:39.403Z,97807.98
2018-12-21T23:09:17.417Z,97793.84
2018-12-21T23:11:54.918Z,97794.04
2018-12-21T23:14:31.887Z,97795.63
2018-12-21T23:17:11.014Z,97806.33
2018-12-21T23:19:48.427Z,97802.49
2018-12-21T23:22:26.822Z,97793.77
2018-12-21T23:25:09.973Z,97798.28
2018-12-21T23:27:46.983Z,97793.86
2018-12-21T23:30:22.428Z,97792.63
2018-12-21T23:32:59.129Z,97789.35
2018-12-21T23:35:31.737Z,97793.45
2018-12-21T23:38:12.601Z,97788.51
2018-12-21T23:40:48.367Z,97795.75
2018-12-21T23:43:24.853Z,97803.73
2018-12-21T23:46:00.111Z,97796.27
2018-12-21T23:48:38.246Z,97789.55
2018-12-21T23:51:10.923Z,97788.83
2018-12-21T23:53:49.783Z,97789.20
2018-12-21T23:56:29.353Z,97783.00
2018-12-21T23:59:04.035Z,97785.61
